createdAt,value
2018-03-22T00:00:04.588Z,1021.87
2018-03-22T00:05:03.216Z,1021.77
2018-03-22T00:10:04.011Z,1021.65
2018-03-22T00:15:03.503Z,1021.56
2018-03-22T00:20:03.012Z,1021.47
2018-03-22T00:25:03.493Z,1021.35
2018-03-22T00:30:02.959Z,1021.35
2018-03-22T00:35:03.452Z,1021.11
2018-03-22T00:40:02.947Z,1021.08
2018-03-22T00:45:03.425Z,1021.05
2018-03-22T00:50:02.914Z,1021.07
2018-03-22T00:55:03.391Z,1020.85
2018-03-22T01:00:02.867Z,1020.77
2018-03-22T01:05:03.287Z,1020.71
2018-03-22T01:10:02.907Z,1020.67
2018-03-22T01:15:03.646Z,1020.67
2018-03-22T01:20:03.158Z,1020.55
2018-03-22T01:25:02.661Z,1020.56
2018-03-22T01:30:03.170Z,1020.65
2018-03-22T01:35:03.583Z,1020.57
2018-03-22T01:40:03.201Z,1020.38
2018-03-22T01:45:02.661Z,1020.2
2018-03-22T01:50:03.106Z,1020.07
2018-03-22T01:55:03.519Z,1019.95
2018-03-22T02:00:02.988Z,1019.84
2018-03-22T02:05:03.474Z,1019.74
2018-03-22T02:10:03.233Z,1019.63
2018-03-22T02:15:02.765Z,1019.48
2018-03-22T02:20:03.293Z,1019.34
2018-03-22T02:25:02.827Z,1019.27
2018-03-22T02:30:03.419Z,1019.16
2018-03-22T02:35:02.916Z,1018.98
2018-03-22T02:40:03.478Z,1019.02
2018-03-22T02:45:02.987Z,1018.81
2018-03-22T02:50:03.581Z,1018.76
2018-03-22T02:55:03.092Z,1018.63
2018-03-22T03:00:03.557Z,1018.53
2018-03-22T03:05:02.980Z,1018.44
2018-03-22T03:10:03.508Z,1018.32
2018-03-22T03:15:03.038Z,1018.28
2018-03-22T03:20:03.713Z,1018.28
2018-03-22T03:25:03.202Z,1018.2
2018-03-22T03:30:03.652Z,1018.03
2018-03-22T03:35:03.126Z,1017.92
2018-03-22T03:40:03.668Z,1017.94
2018-03-22T03:45:03.193Z,1017.85
2018-03-22T03:50:03.681Z,1017.73
2018-03-22T03:55:03.172Z,1017.37
2018-03-22T04:00:04.479Z,1017.5
2018-03-22T04:05:02.981Z,1017.38
2018-03-22T04:10:03.530Z,1017.34
2018-03-22T04:15:02.990Z,1017.28
2018-03-22T04:20:03.535Z,1017.25
2018-03-22T04:25:03.104Z,1017.15
2018-03-22T04:30:03.531Z,1017.11
2018-03-22T04:35:03.009Z,1017.1
2018-03-22T04:40:03.467Z,1016.98
2018-03-22T04:45:02.951Z,1016.91
2018-03-22T04:50:03.432Z,1016.83
2018-03-22T04:55:02.940Z,1016.77
2018-03-22T05:00:03.666Z,1016.6
2018-03-22T05:05:03.061Z,1016.43
2018-03-22T05:10:03.578Z,1016.3
2018-03-22T05:15:03.042Z,1016.34
2018-03-22T05:20:03.547Z,1016.45
2018-03-22T05:25:03.263Z,1016.48
2018-03-22T05:30:03.256Z,1016.43
2018-03-22T05:35:02.846Z,1016.47
2018-03-22T05:40:03.449Z,1016.43
2018-03-22T05:45:03.138Z,1016.31
2018-03-22T05:50:02.990Z,1016.36
2018-03-22T05:55:03.495Z,1016.24
2018-03-22T06:00:03.014Z,1016.17
2018-03-22T06:05:03.544Z,1016.11
2018-03-22T06:10:03.152Z,1015.88
2018-03-22T06:15:02.797Z,1015.78
2018-03-22T06:20:03.433Z,1015.87
2018-03-22T06:25:03.010Z,1015.69
2018-03-22T06:30:03.571Z,1015.66
2018-03-22T06:35:03.107Z,1015.61
2018-03-22T06:40:02.898Z,1015.58
2018-03-22T06:45:03.461Z,1015.48
2018-03-22T06:50:02.954Z,1015.31
2018-03-22T06:55:03.553Z,1015.27
2018-03-22T07:00:03.247Z,1015.18
2018-03-22T07:05:02.825Z,1015.19
2018-03-22T07:10:03.352Z,1015.08
2018-03-22T07:15:02.906Z,1014.94
2018-03-22T07:20:03.482Z,1014.99
2018-03-22T07:25:03.007Z,1014.91
2018-03-22T07:30:03.524Z,1014.96
2018-03-22T07:35:03.093Z,1014.88
2018-03-22T07:40:03.701Z,1014.97
2018-03-22T07:45:03.367Z,1014.89
2018-03-22T07:50:02.944Z,1014.97
2018-03-22T07:55:03.528Z,1014.95
2018-03-22T08:00:03.324Z,1014.86
2018-03-22T08:05:02.877Z,1014.86
2018-03-22T08:10:03.485Z,1014.81
2018-03-22T08:15:02.995Z,1014.91
2018-03-22T08:20:03.664Z,1014.68
2018-03-22T08:25:03.342Z,1014.66
2018-03-22T08:30:03.076Z,1014.62
2018-03-22T08:35:03.852Z,1014.66
2018-03-22T08:40:03.551Z,1014.65
2018-03-22T08:45:03.054Z,1014.59
2018-03-22T08:50:03.648Z,1014.57
2018-03-22T08:55:03.266Z,1014.44
2018-03-22T09:00:02.810Z,1014.38
2018-03-22T09:05:03.397Z,1014.24
2018-03-22T09:10:02.982Z,1014.29
2018-03-22T09:15:03.458Z,1014.37
2018-03-22T09:20:03.049Z,1014.42
2018-03-22T09:25:03.597Z,1014.29
2018-03-22T09:30:03.107Z,1014.29
2018-03-22T09:35:03.578Z,1014.22
2018-03-22T09:40:03.195Z,1014.27
2018-03-22T09:45:02.720Z,1014.19
2018-03-22T09:50:03.300Z,1014.15
2018-03-22T09:55:02.914Z,1014.06
2018-03-22T10:00:03.526Z,1014.06
2018-03-22T10:05:02.991Z,1014.1
2018-03-22T10:10:03.598Z,1014.11
2018-03-22T10:15:03.107Z,1014.19
2018-03-22T10:20:03.642Z,1014.19
2018-03-22T10:25:03.232Z,1014.14
2018-03-22T10:30:02.781Z,1014.05
2018-03-22T10:35:03.386Z,1014.02
2018-03-22T10:40:02.995Z,1014
2018-03-22T10:45:03.568Z,1013.96
2018-03-22T10:50:03.053Z,1013.96
2018-03-22T10:55:03.631Z,1013.9
2018-03-22T11:00:03.204Z,1013.77
2018-03-22T11:05:02.739Z,1013.65
2018-03-22T11:10:03.336Z,1013.74
2018-03-22T11:15:02.864Z,1013.67
2018-03-22T11:20:03.359Z,1013.55
2018-03-22T11:25:02.943Z,1013.52
2018-03-22T11:30:03.547Z,1013.54
2018-03-22T11:35:03.224Z,1013.39
2018-03-22T11:40:02.809Z,1013.37
2018-03-22T11:45:03.313Z,1013.37
2018-03-22T11:50:02.837Z,1013.29
2018-03-22T11:55:03.337Z,1013.32
2018-03-22T12:00:02.891Z,1013.3
2018-03-22T12:05:03.367Z,1013.31
2018-03-22T12:10:02.917Z,1013.33
2018-03-22T12:15:03.463Z,1013.27
2018-03-22T12:20:02.959Z,1013.27
2018-03-22T12:25:03.555Z,1013.25
2018-03-22T12:30:03.100Z,1013.21
2018-03-22T12:35:03.618Z,1013.17
2018-03-22T12:40:03.217Z,1013.21
2018-03-22T12:45:02.741Z,1013.09
2018-03-22T12:50:03.326Z,1013.02
2018-03-22T12:55:02.930Z,1012.98
2018-03-22T13:00:03.791Z,1012.95
2018-03-22T13:05:03.562Z,1012.92
2018-03-22T13:10:03.089Z,1012.95
2018-03-22T13:15:03.669Z,1012.82
2018-03-22T13:20:03.252Z,1012.8
2018-03-22T13:25:02.739Z,1012.76
2018-03-22T13:30:03.246Z,1012.78
2018-03-22T13:35:02.756Z,1012.7
2018-03-22T13:40:03.400Z,1012.66
2018-03-22T13:45:02.944Z,1012.63
2018-03-22T13:50:03.544Z,1012.73
2018-03-22T13:55:02.989Z,1012.74
2018-03-22T14:00:03.604Z,1012.69
2018-03-22T14:05:03.295Z,1012.61
2018-03-22T14:10:02.912Z,1012.69
2018-03-22T14:15:03.521Z,1012.55
2018-03-22T14:20:03.140Z,1012.68
2018-03-22T14:25:03.631Z,1012.6
2018-03-22T14:30:03.175Z,1012.61
2018-03-22T14:35:02.725Z,1012.69
2018-03-22T14:40:03.322Z,1012.57
2018-03-22T14:45:03.104Z,1012.55
2018-03-22T14:50:02.727Z,1012.48
2018-03-22T14:55:03.325Z,1012.54
2018-03-22T15:00:02.975Z,1012.51
2018-03-22T15:05:03.507Z,1012.41
2018-03-22T15:10:03.151Z,1012.49
2018-03-22T15:15:02.734Z,1012.45
2018-03-22T15:20:03.312Z,1012.36
2018-03-22T15:25:02.826Z,1012.41
2018-03-22T15:30:03.437Z,1012.33
2018-03-22T15:35:03.018Z,1012.29
2018-03-22T15:40:03.579Z,1012.37
2018-03-22T15:45:03.170Z,1012.32
2018-03-22T15:50:03.644Z,1012.32
2018-03-22T15:55:03.165Z,1012.32
2018-03-22T16:00:02.733Z,1012.34
2018-03-22T16:05:03.323Z,1012.43
2018-03-22T16:10:02.873Z,1012.35
2018-03-22T16:15:03.415Z,1012.37
2018-03-22T16:20:02.982Z,1012.36
2018-03-22T16:25:03.495Z,1012.38
2018-03-22T16:30:03.041Z,1012.42
2018-03-22T16:35:03.629Z,1012.41
2018-03-22T16:40:03.247Z,1012.4
2018-03-22T16:45:02.830Z,1012.37
2018-03-22T16:50:03.397Z,1012.32
2018-03-22T17:00:03.147Z,1012.34
2018-03-22T17:05:03.003Z,1012.35
2018-03-22T17:10:03.665Z,1012.32
2018-03-22T19:15:03.141Z,1012.38
2018-03-22T19:20:03.669Z,1012.37
2018-03-22T19:25:03.216Z,1012.34
2018-03-22T19:30:02.737Z,1012.35
2018-03-22T19:35:03.429Z,1012.29
2018-03-22T19:40:03.044Z,1012.27
2018-03-22T19:45:03.609Z,1012.29
2018-03-22T19:50:03.133Z,1012.32
2018-03-22T19:55:03.679Z,1012.36
2018-03-22T20:00:03.266Z,1012.29
2018-03-22T20:05:02.783Z,1012.3
2018-03-22T20:10:03.471Z,1012.25
2018-03-22T20:15:03.000Z,1012.23
2018-03-22T20:20:03.590Z,1012.32
2018-03-22T20:25:03.161Z,1012.28
2018-03-22T20:30:03.101Z,1012.26
2018-03-22T20:35:03.673Z,1012.15
2018-03-22T20:40:03.251Z,1012.23
2018-03-22T20:45:02.782Z,1012.22
2018-03-22T20:50:03.363Z,1012.23
2018-03-22T20:55:02.946Z,1012.18
2018-03-22T21:00:03.423Z,1012.25
2018-03-22T21:05:02.966Z,1012.2
2018-03-22T21:10:03.586Z,1012.27
2018-03-22T21:15:03.125Z,1012.23
2018-03-22T21:20:02.734Z,1012.23
2018-03-22T21:25:03.248Z,1012.15
2018-03-22T21:30:02.867Z,1012.08
2018-03-22T21:35:03.449Z,1012.08
2018-03-22T21:40:03.076Z,1012.1
2018-03-22T21:45:03.613Z,1012
2018-03-22T21:50:03.213Z,1012.05
2018-03-22T21:55:02.802Z,1012.03
2018-03-22T22:00:03.338Z,1011.98
2018-03-22T22:05:02.881Z,1011.96
2018-03-22T22:10:03.506Z,1011.89
2018-03-22T22:15:03.047Z,1011.84
2018-03-22T22:20:03.617Z,1011.87
2018-03-22T22:25:03.240Z,1011.8
2018-03-22T22:30:03.200Z,1011.73
2018-03-22T22:35:02.768Z,1011.78
2018-03-22T22:40:03.357Z,1011.72
2018-03-22T22:45:02.911Z,1011.65
2018-03-22T22:50:03.439Z,1011.64
2018-03-22T22:55:02.979Z,1011.52
2018-03-22T23:00:03.600Z,1011.42
2018-03-22T23:05:03.136Z,1011.33
2018-03-22T23:10:02.772Z,1011.27
2018-03-22T23:15:03.332Z,1011.29
2018-03-22T23:20:02.897Z,1011.22
2018-03-22T23:25:03.438Z,1011.2
2018-03-22T23:30:02.956Z,1011.1
2018-03-22T23:35:03.587Z,1011.1
2018-03-22T23:40:03.141Z,1011.01
2018-03-22T23:45:03.677Z,1010.98
2018-03-22T23:50:03.174Z,1010.93
2018-03-22T23:55:03.677Z,1010.95
